sensor_id;sensor_type;location;lat;lon;timestamp;pressure;altitude;pressure_sealevel;temperature;humidity
14117;BME280;7137;51.436;6.544;2023-02-18T00:00:01;101844.22;;;12.12;97.59
14117;BME280;7137;51.436;6.544;2023-02-18T00:03:02;101839.59;;;12.24;98.14
14117;BME280;7137;51.436;6.544;2023-02-18T00:06:13;101830.13;;;12.18;97.10
14117;BME280;7137;51.436;6.544;2023-02-18T00:09:15;101813.56;;;12.16;96.92
14117;BME280;7137;51.436;6.544;2023-02-18T00:12:16;101822.22;;;12.19;97.86
14117;BME280;7137;51.436;6.544;2023-02-18T00:15:18;101814.00;;;11.93;98.66
14117;BME280;7137;51.436;6.544;2023-02-18T00:18:19;101814.13;;;11.87;99.52
14117;BME280;7137;51.436;6.544;2023-02-18T00:21:22;101810.94;;;12.16;97.07
14117;BME280;7137;51.436;6.544;2023-02-18T00:24:24;101807.59;;;12.08;98.35
14117;BME280;7137;51.436;6.544;2023-02-18T00:27:25;101813.38;;;12.25;96.92
14117;BME280;7137;51.436;6.544;2023-02-18T00:30:27;101814.41;;;12.18;97.92
14117;BME280;7137;51.436;6.544;2023-02-18T00:33:28;101807.00;;;11.94;100.00
14117;BME280;7137;51.436;6.544;2023-02-18T00:36:32;101812.84;;;12.08;99.61
14117;BME280;7137;51.436;6.544;2023-02-18T00:39:33;101803.19;;;12.10;97.98
14117;BME280;7137;51.436;6.544;2023-02-18T00:42:35;101790.94;;;12.13;98.00
14117;BME280;7137;51.436;6.544;2023-02-18T00:45:36;101788.50;;;12.03;98.97
14117;BME280;7137;51.436;6.544;2023-02-18T00:48:38;101787.75;;;11.96;98.58
14117;BME280;7137;51.436;6.544;2023-02-18T00:51:42;101775.22;;;12.13;97.96
14117;BME280;7137;51.436;6.544;2023-02-18T00:54:44;101768.91;;;11.77;100.00
14117;BME280;7137;51.436;6.544;2023-02-18T00:57:45;101769.53;;;11.92;99.03
14117;BME280;7137;51.436;6.544;2023-02-18T01:00:47;101772.22;;;11.88;100.00
14117;BME280;7137;51.436;6.544;2023-02-18T01:03:49;101766.38;;;11.73;100.00
14117;BME280;7137;51.436;6.544;2023-02-18T01:06:52;101762.72;;;11.84;100.00
14117;BME280;7137;51.436;6.544;2023-02-18T01:09:53;101771.53;;;11.77;100.00
14117;BME280;7137;51.436;6.544;2023-02-18T01:12:55;101769.50;;;11.93;100.00
14117;BME280;7137;51.436;6.544;2023-02-18T01:15:56;101767.94;;;11.84;100.00
14117;BME280;7137;51.436;6.544;2023-02-18T01:18:58;101765.31;;;11.84;100.00
14117;BME280;7137;51.436;6.544;2023-02-18T01:22:01;101774.06;;;11.82;100.00
14117;BME280;7137;51.436;6.544;2023-02-18T01:25:03;101766.97;;;11.88;100.00
14117;BME280;7137;51.436;6.544;2023-02-18T01:28:06;101758.63;;;11.67;100.00
14117;BME280;7137;51.436;6.544;2023-02-18T01:31:10;101759.19;;;11.85;100.00
14117;BME280;7137;51.436;6.544;2023-02-18T01:34:11;101752.63;;;11.62;100.00
14117;BME280;7137;51.436;6.544;2023-02-18T01:37:15;101744.78;;;11.62;100.00
14117;BME280;7137;51.436;6.544;2023-02-18T01:40:19;101737.53;;;11.76;100.00
14117;BME280;7137;51.436;6.544;2023-02-18T01:43:22;101740.50;;;11.57;100.00
14117;BME280;7137;51.436;6.544;2023-02-18T01:46:24;101735.34;;;11.54;100.00
14117;BME280;7137;51.436;6.544;2023-02-18T01:49:27;101738.63;;;11.64;100.00
14117;BME280;7137;51.436;6.544;2023-02-18T01:52:32;101726.94;;;11.83;100.00
14117;BME280;7137;51.436;6.544;2023-02-18T01:55:34;101731.22;;;11.87;100.00
14117;BME280;7137;51.436;6.544;2023-02-18T01:58:37;101728.19;;;11.63;100.00
14117;BME280;7137;51.436;6.544;2023-02-18T02:01:41;101724.66;;;11.65;100.00
14117;BME280;7137;51.436;6.544;2023-02-18T02:04:44;101720.69;;;11.91;100.00
14117;BME280;7137;51.436;6.544;2023-02-18T02:07:50;101718.28;;;11.78;100.00
14117;BME280;7137;51.436;6.544;2023-02-18T02:11:03;101715.75;;;11.74;100.00
14117;BME280;7137;51.436;6.544;2023-02-18T02:14:21;101708.97;;;11.64;100.00
14117;BME280;7137;51.436;6.544;2023-02-18T02:17:35;101701.72;;;11.78;100.00
14117;BME280;7137;51.436;6.544;2023-02-18T02:24:56;101707.28;;;12.04;100.00
14117;BME280;7137;51.436;6.544;2023-02-18T02:32:00;101707.22;;;11.64;100.00
14117;BME280;7137;51.436;6.544;2023-02-18T02:35:08;101694.69;;;11.83;100.00
14117;BME280;7137;51.436;6.544;2023-02-18T02:38:17;101702.03;;;11.63;100.00
14117;BME280;7137;51.436;6.544;2023-02-18T02:41:29;101689.47;;;11.78;100.00
14117;BME280;7137;51.436;6.544;2023-02-18T02:44:37;101699.06;;;11.82;100.00
14117;BME280;7137;51.436;6.544;2023-02-18T02:47:45;101678.09;;;11.81;100.00
14117;BME280;7137;51.436;6.544;2023-02-18T02:50:54;101678.56;;;11.58;100.00
14117;BME280;7137;51.436;6.544;2023-02-18T02:54:09;101680.78;;;11.33;100.00
14117;BME280;7137;51.436;6.544;2023-02-18T03:01:20;101655.25;;;11.01;100.00
14117;BME280;7137;51.436;6.544;2023-02-18T03:08:16;101657.63;;;11.12;100.00
14117;BME280;7137;51.436;6.544;2023-02-18T03:11:19;101648.75;;;11.22;100.00
14117;BME280;7137;51.436;6.544;2023-02-18T03:14:27;101643.19;;;11.39;100.00
14117;BME280;7137;51.436;6.544;2023-02-18T03:17:31;101628.53;;;11.30;100.00
14117;BME280;7137;51.436;6.544;2023-02-18T03:20:38;101631.97;;;11.34;100.00
14117;BME280;7137;51.436;6.544;2023-02-18T03:23:48;101629.31;;;11.35;100.00
14117;BME280;7137;51.436;6.544;2023-02-18T03:26:52;101618.66;;;11.44;100.00
14117;BME280;7137;51.436;6.544;2023-02-18T03:29:58;101622.38;;;11.33;100.00
14117;BME280;7137;51.436;6.544;2023-02-18T03:33:03;101600.78;;;11.23;100.00
14117;BME280;7137;51.436;6.544;2023-02-18T03:36:06;101595.44;;;11.29;100.00
14117;BME280;7137;51.436;6.544;2023-02-18T03:39:13;101589.94;;;10.96;100.00
14117;BME280;7137;51.436;6.544;2023-02-18T03:42:15;101592.28;;;11.13;100.00
14117;BME280;7137;51.436;6.544;2023-02-18T03:45:18;101592.28;;;11.12;100.00
14117;BME280;7137;51.436;6.544;2023-02-18T03:48:19;101595.44;;;11.29;100.00
14117;BME280;7137;51.436;6.544;2023-02-18T03:51:21;101585.22;;;11.17;100.00
14117;BME280;7137;51.436;6.544;2023-02-18T03:54:24;101587.84;;;11.17;100.00
14117;BME280;7137;51.436;6.544;2023-02-18T03:57:25;101577.38;;;11.17;100.00
14117;BME280;7137;51.436;6.544;2023-02-18T04:00:27;101574.50;;;11.29;100.00
14117;BME280;7137;51.436;6.544;2023-02-18T04:03:28;101570.22;;;11.26;100.00
14117;BME280;7137;51.436;6.544;2023-02-18T04:06:30;101558.41;;;11.06;100.00
14117;BME280;7137;51.436;6.544;2023-02-18T04:09:32;101570.75;;;10.97;100.00
14117;BME280;7137;51.436;6.544;2023-02-18T04:12:34;101561.88;;;11.06;100.00
14117;BME280;7137;51.436;6.544;2023-02-18T04:15:35;101555.06;;;10.99;100.00
14117;BME280;7137;51.436;6.544;2023-02-18T04:18:37;101559.22;;;11.09;100.00
14117;BME280;7137;51.436;6.544;2023-02-18T04:21:38;101561.78;;;11.12;100.00
14117;BME280;7137;51.436;6.544;2023-02-18T04:24:41;101557.75;;;10.94;100.00
14117;BME280;7137;51.436;6.544;2023-02-18T04:27:43;101567.75;;;11.19;100.00
14117;BME280;7137;51.436;6.544;2023-02-18T04:30:45;101554.28;;;10.94;100.00
14117;BME280;7137;51.436;6.544;2023-02-18T04:33:47;101551.84;;;10.86;100.00
14117;BME280;7137;51.436;6.544;2023-02-18T04:36:48;101540.16;;;11.04;100.00
14117;BME280;7137;51.436;6.544;2023-02-18T04:39:51;101550.09;;;10.87;100.00
14117;BME280;7137;51.436;6.544;2023-02-18T04:42:53;101541.53;;;10.77;100.00
14117;BME280;7137;51.436;6.544;2023-02-18T04:45:54;101545.88;;;10.78;100.00
14117;BME280;7137;51.436;6.544;2023-02-18T04:48:55;101537.19;;;10.78;100.00
14117;BME280;7137;51.436;6.544;2023-02-18T04:51:57;101531.94;;;10.78;100.00
14117;BME280;7137;51.436;6.544;2023-02-18T04:55:00;101527.25;;;10.95;100.00
14117;BME280;7137;51.436;6.544;2023-02-18T04:58:01;101521.91;;;11.01;100.00
14117;BME280;7137;51.436;6.544;2023-02-18T05:01:03;101525.66;;;10.88;100.00
14117;BME280;7137;51.436;6.544;2023-02-18T05:04:05;101520.81;;;10.68;100.00
14117;BME280;7137;51.436;6.544;2023-02-18T05:07:06;101513.59;;;10.81;100.00
14117;BME280;7137;51.436;6.544;2023-02-18T05:10:11;101508.47;;;10.76;100.00
14117;BME280;7137;51.436;6.544;2023-02-18T05:13:15;101507.72;;;10.68;100.00
14117;BME280;7137;51.436;6.544;2023-02-18T05:16:17;101512.13;;;10.66;100.00
14117;BME280;7137;51.436;6.544;2023-02-18T05:19:18;101497.28;;;10.68;100.00
14117;BME280;7137;51.436;6.544;2023-02-18T05:22:20;101505.97;;;10.68;100.00
14117;BME280;7137;51.436;6.544;2023-02-18T05:25:23;101492.03;;;10.69;100.00
14117;BME280;7137;51.436;6.544;2023-02-18T05:28:24;101489.59;;;10.60;100.00
14117;BME280;7137;51.436;6.544;2023-02-18T05:31:26;101490.09;;;10.79;100.00
14117;BME280;7137;51.436;6.544;2023-02-18T05:34:27;101491.03;;;10.77;100.00
14117;BME280;7137;51.436;6.544;2023-02-18T05:37:29;101475.53;;;10.67;100.00
14117;BME280;7137;51.436;6.544;2023-02-18T05:40:31;101465.00;;;10.72;100.00
14117;BME280;7137;51.436;6.544;2023-02-18T05:43:33;101465.03;;;10.69;100.00
14117;BME280;7137;51.436;6.544;2023-02-18T05:46:56;101460.56;;;10.76;100.00
14117;BME280;7137;51.436;6.544;2023-02-18T05:49:58;101451.16;;;10.67;100.00
14117;BME280;7137;51.436;6.544;2023-02-18T05:52:59;101459.16;;;10.59;100.00
14117;BME280;7137;51.436;6.544;2023-02-18T05:56:03;101451.97;;;10.70;100.00
14117;BME280;7137;51.436;6.544;2023-02-18T05:59:04;101445.19;;;10.60;100.00
14117;BME280;7137;51.436;6.544;2023-02-18T06:02:06;101452.19;;;10.60;100.00
14117;BME280;7137;51.436;6.544;2023-02-18T06:05:08;101447.78;;;10.62;100.00
14117;BME280;7137;51.436;6.544;2023-02-18T06:08:10;101448.53;;;10.67;100.00
14117;BME280;7137;51.436;6.544;2023-02-18T06:11:12;101454.31;;;10.83;100.00
14117;BME280;7137;51.436;6.544;2023-02-18T06:14:14;101445.72;;;10.78;100.00
14117;BME280;7137;51.436;6.544;2023-02-18T06:17:15;101444.16;;;10.67;100.00
14117;BME280;7137;51.436;6.544;2023-02-18T06:20:18;101445.03;;;10.68;100.00
14117;BME280;7137;51.436;6.544;2023-02-18T06:23:19;101433.13;;;10.53;100.00
14117;BME280;7137;51.436;6.544;2023-02-18T06:26:22;101429.78;;;10.47;100.00
14117;BME280;7137;51.436;6.544;2023-02-18T06:29:24;101426.16;;;10.54;100.00
14117;BME280;7137;51.436;6.544;2023-02-18T06:32:27;101432.25;;;10.56;100.00
14117;BME280;7137;51.436;6.544;2023-02-18T06:35:28;101437.63;;;10.47;100.00
14117;BME280;7137;51.436;6.544;2023-02-18T06:38:30;101447.94;;;10.53;100.00
14117;BME280;7137;51.436;6.544;2023-02-18T06:41:33;101454.75;;;10.61;100.00
14117;BME280;7137;51.436;6.544;2023-02-18T06:44:34;101448.69;;;10.59;100.00
14117;BME280;7137;51.436;6.544;2023-02-18T06:47:36;101460.06;;;10.57;100.00
14117;BME280;7137;51.436;6.544;2023-02-18T06:50:37;101455.75;;;10.54;100.00
14117;BME280;7137;51.436;6.544;2023-02-18T06:53:39;101469.59;;;10.59;100.00
14117;BME280;7137;51.436;6.544;2023-02-18T06:56:41;101466.03;;;10.63;100.00
14117;BME280;7137;51.436;6.544;2023-02-18T06:59:43;101459.13;;;10.61;100.00
14117;BME280;7137;51.436;6.544;2023-02-18T07:02:44;101457.66;;;10.46;100.00
14117;BME280;7137;51.436;6.544;2023-02-18T07:05:46;101443.69;;;10.49;100.00
14117;BME280;7137;51.436;6.544;2023-02-18T07:08:47;101442.31;;;10.29;100.00
14117;BME280;7137;51.436;6.544;2023-02-18T07:11:50;101438.66;;;10.38;100.00
14117;BME280;7137;51.436;6.544;2023-02-18T07:14:52;101446.41;;;10.41;100.00
14117;BME280;7137;51.436;6.544;2023-02-18T07:17:53;101448.06;;;10.47;100.00
14117;BME280;7137;51.436;6.544;2023-02-18T07:20:55;101457.53;;;10.52;100.00
14117;BME280;7137;51.436;6.544;2023-02-18T07:23:56;101452.28;;;10.54;100.00
14117;BME280;7137;51.436;6.544;2023-02-18T07:26:59;101456.56;;;10.58;100.00
14117;BME280;7137;51.436;6.544;2023-02-18T07:30:01;101458.06;;;10.71;100.00
14117;BME280;7137;51.436;6.544;2023-02-18T07:33:02;101467.69;;;10.67;100.00
14117;BME280;7137;51.436;6.544;2023-02-18T07:36:05;101474.19;;;10.91;100.00
14117;BME280;7137;51.436;6.544;2023-02-18T07:39:06;101475.44;;;10.72;100.00
14117;BME280;7137;51.436;6.544;2023-02-18T07:42:10;101474.28;;;10.87;100.00
14117;BME280;7137;51.436;6.544;2023-02-18T07:45:13;101475.19;;;10.86;100.00
14117;BME280;7137;51.436;6.544;2023-02-18T07:48:15;101467.13;;;10.95;100.00
14117;BME280;7137;51.436;6.544;2023-02-18T07:51:17;101465.00;;;10.72;100.00
14117;BME280;7137;51.436;6.544;2023-02-18T07:54:18;101473.06;;;10.60;100.00
14117;BME280;7137;51.436;6.544;2023-02-18T07:57:21;101480.91;;;10.60;100.00
14117;BME280;7137;51.436;6.544;2023-02-18T08:00:23;101484.53;;;10.51;100.00
14117;BME280;7137;51.436;6.544;2023-02-18T08:03:27;101494.16;;;10.49;100.00
14117;BME280;7137;51.436;6.544;2023-02-18T08:06:33;101492.91;;;10.68;100.00
14117;BME280;7137;51.436;6.544;2023-02-18T08:09:34;101500.63;;;10.76;100.00
14117;BME280;7137;51.436;6.544;2023-02-18T08:12:38;101497.84;;;10.84;100.00
14117;BME280;7137;51.436;6.544;2023-02-18T08:15:40;101492.75;;;10.78;100.00
14117;BME280;7137;51.436;6.544;2023-02-18T08:18:44;101487.31;;;10.44;100.00
14117;BME280;7137;51.436;6.544;2023-02-18T08:21:47;101495.59;;;10.65;100.00
14117;BME280;7137;51.436;6.544;2023-02-18T08:24:48;101483.50;;;10.61;100.00
14117;BME280;7137;51.436;6.544;2023-02-18T08:27:51;101481.34;;;10.82;100.00
14117;BME280;7137;51.436;6.544;2023-02-18T08:30:53;101481.31;;;10.85;100.00
14117;BME280;7137;51.436;6.544;2023-02-18T08:33:56;101488.53;;;10.72;100.00
14117;BME280;7137;51.436;6.544;2023-02-18T08:36:58;101491.81;;;10.80;100.00
14117;BME280;7137;51.436;6.544;2023-02-18T08:40:02;101500.13;;;10.57;100.00
14117;BME280;7137;51.436;6.544;2023-02-18T08:43:06;101499.44;;;10.48;100.00
14117;BME280;7137;51.436;6.544;2023-02-18T08:46:07;101493.78;;;10.70;100.00
14117;BME280;7137;51.436;6.544;2023-02-18T08:49:09;101495.22;;;10.85;100.00
14117;BME280;7137;51.436;6.544;2023-02-18T08:52:11;101497.69;;;10.91;100.00
14117;BME280;7137;51.436;6.544;2023-02-18T08:55:13;101491.16;;;10.69;100.00
14117;BME280;7137;51.436;6.544;2023-02-18T08:58:16;101496.38;;;10.69;100.00
14117;BME280;7137;51.436;6.544;2023-02-18T09:01:17;101496.41;;;10.67;100.00
14117;BME280;7137;51.436;6.544;2023-02-18T09:04:20;101499.97;;;10.65;99.68
14117;BME280;7137;51.436;6.544;2023-02-18T09:07:21;101495.22;;;10.85;98.31
14117;BME280;7137;51.436;6.544;2023-02-18T09:10:23;101493.31;;;10.93;97.57
14117;BME280;7137;51.436;6.544;2023-02-18T09:13:27;101483.97;;;10.80;97.42
14117;BME280;7137;51.436;6.544;2023-02-18T09:16:28;101490.91;;;10.83;97.73
14117;BME280;7137;51.436;6.544;2023-02-18T09:19:30;101487.31;;;10.88;96.84
14117;BME280;7137;51.436;6.544;2023-02-18T09:22:32;101501.19;;;10.92;95.89
14117;BME280;7137;51.436;6.544;2023-02-18T09:25:34;101502.44;;;10.73;97.08
14117;BME280;7137;51.436;6.544;2023-02-18T09:28:37;101490.00;;;10.84;95.91
14117;BME280;7137;51.436;6.544;2023-02-18T09:31:39;101487.38;;;10.84;96.17
14117;BME280;7137;51.436;6.544;2023-02-18T09:34:40;101486.56;;;10.82;96.26
14117;BME280;7137;51.436;6.544;2023-02-18T09:37:42;101471.53;;;10.93;96.07
14117;BME280;7137;51.436;6.544;2023-02-18T09:40:45;101485.81;;;11.18;94.83
14117;BME280;7137;51.436;6.544;2023-02-18T09:43:50;101482.00;;;11.33;94.35
14117;BME280;7137;51.436;6.544;2023-02-18T09:46:55;101478.69;;;11.25;93.32
14117;BME280;7137;51.436;6.544;2023-02-18T09:50:05;101478.75;;;11.22;92.95
14117;BME280;7137;51.436;6.544;2023-02-18T09:53:10;101470.53;;;11.40;93.19
14117;BME280;7137;51.436;6.544;2023-02-18T09:56:14;101482.97;;;11.66;92.43
14117;BME280;7137;51.436;6.544;2023-02-18T09:59:21;101476.31;;;11.54;92.57
14117;BME280;7137;51.436;6.544;2023-02-18T10:02:24;101484.19;;;11.51;92.78
14117;BME280;7137;51.436;6.544;2023-02-18T10:05:28;101487.81;;;11.84;92.97
14117;BME280;7137;51.436;6.544;2023-02-18T10:08:33;101476.25;;;11.56;91.36
14117;BME280;7137;51.436;6.544;2023-02-18T10:11:39;101483.16;;;11.58;92.71
14117;BME280;7137;51.436;6.544;2023-02-18T10:14:43;101483.25;;;11.55;92.23
14117;BME280;7137;51.436;6.544;2023-02-18T10:17:47;101494.69;;;11.10;96.10
14117;BME280;7137;51.436;6.544;2023-02-18T10:20:50;101497.66;;;10.93;97.34
14117;BME280;7137;51.436;6.544;2023-02-18T10:23:57;101491.47;;;10.97;98.67
14117;BME280;7137;51.436;6.544;2023-02-18T10:27:04;101489.44;;;10.68;99.39
14117;BME280;7137;51.436;6.544;2023-02-18T10:30:21;101504.06;;;10.78;98.95
14117;BME280;7137;51.436;6.544;2023-02-18T10:33:31;101503.75;;;10.49;99.86
14117;BME280;7137;51.436;6.544;2023-02-18T10:36:36;101511.09;;;10.75;99.44
14117;BME280;7137;51.436;6.544;2023-02-18T10:39:54;101518.13;;;10.73;100.00
14117;BME280;7137;51.436;6.544;2023-02-18T10:43:07;101511.25;;;10.67;100.00
14117;BME280;7137;51.436;6.544;2023-02-18T10:46:20;101518.13;;;10.73;100.00
14117;BME280;7137;51.436;6.544;2023-02-18T10:49:36;101520.47;;;10.86;100.00
14117;BME280;7137;51.436;6.544;2023-02-18T10:52:44;101522.84;;;10.52;100.00
14117;BME280;7137;51.436;6.544;2023-02-18T10:55:47;101520.25;;;10.51;100.00
14117;BME280;7137;51.436;6.544;2023-02-18T10:58:49;101516.03;;;10.45;100.00
14117;BME280;7137;51.436;6.544;2023-02-18T11:01:56;101525.63;;;10.43;100.00
14117;BME280;7137;51.436;6.544;2023-02-18T11:05:06;101527.16;;;10.53;100.00
14117;BME280;7137;51.436;6.544;2023-02-18T11:08:19;101532.03;;;10.24;100.00
14117;BME280;7137;51.436;6.544;2023-02-18T11:11:24;101524.69;;;10.47;100.00
14117;BME280;7137;51.436;6.544;2023-02-18T11:14:37;101524.41;;;10.62;100.00
14117;BME280;7137;51.436;6.544;2023-02-18T11:17:42;101531.22;;;10.71;100.00
14117;BME280;7137;51.436;6.544;2023-02-18T11:20:54;101530.63;;;10.55;100.00
14117;BME280;7137;51.436;6.544;2023-02-18T11:23:56;101523.34;;;10.23;100.00
14117;BME280;7137;51.436;6.544;2023-02-18T11:27:08;101522.63;;;10.64;100.00
14117;BME280;7137;51.436;6.544;2023-02-18T11:30:18;101527.09;;;10.58;100.00
14117;BME280;7137;51.436;6.544;2023-02-18T11:33:30;101529.19;;;10.84;100.00
14117;BME280;7137;51.436;6.544;2023-02-18T11:36:34;101536.88;;;10.93;100.00
14117;BME280;7137;51.436;6.544;2023-02-18T11:39:42;101534.06;;;11.04;100.00
14117;BME280;7137;51.436;6.544;2023-02-18T11:42:44;101533.38;;;10.48;100.00
14117;BME280;7137;51.436;6.544;2023-02-18T11:45:46;101535.41;;;10.78;100.00
14117;BME280;7137;51.436;6.544;2023-02-18T11:48:50;101534.03;;;10.60;100.00
14117;BME280;7137;51.436;6.544;2023-02-18T11:51:52;101527.06;;;10.59;100.00
14117;BME280;7137;51.436;6.544;2023-02-18T11:55:01;101530.63;;;10.55;100.00
14117;BME280;7137;51.436;6.544;2023-02-18T11:58:05;101526.13;;;10.63;100.00
14117;BME280;7137;51.436;6.544;2023-02-18T12:01:13;101529.91;;;10.93;100.00
14117;BME280;7137;51.436;6.544;2023-02-18T12:04:18;101526.97;;;11.09;100.00
14117;BME280;7137;51.436;6.544;2023-02-18T12:07:23;101519.66;;;10.84;100.00
14117;BME280;7137;51.436;6.544;2023-02-18T12:10:27;101524.28;;;10.70;100.00
14117;BME280;7137;51.436;6.544;2023-02-18T12:13:32;101531.91;;;10.79;100.00
14117;BME280;7137;51.436;6.544;2023-02-18T12:16:46;101525.34;;;10.58;100.00
14117;BME280;7137;51.436;6.544;2023-02-18T12:20:13;101509.66;;;10.60;100.00
14117;BME280;7137;51.436;6.544;2023-02-18T12:23:23;101519.00;;;10.72;100.00
14117;BME280;7137;51.436;6.544;2023-02-18T12:26:29;101517.28;;;10.69;100.00
14117;BME280;7137;51.436;6.544;2023-02-18T12:29:55;101518.22;;;10.66;100.00
14117;BME280;7137;51.436;6.544;2023-02-18T12:33:07;101517.00;;;10.86;100.00
14117;BME280;7137;51.436;6.544;2023-02-18T12:36:23;101516.88;;;10.92;100.00
14117;BME280;7137;51.436;6.544;2023-02-18T12:39:43;101509.56;;;10.64;100.00
14117;BME280;7137;51.436;6.544;2023-02-18T12:42:56;101521.16;;;10.94;100.00
14117;BME280;7137;51.436;6.544;2023-02-18T12:46:20;101518.97;;;10.73;100.00
14117;BME280;7137;51.436;6.544;2023-02-18T12:49:45;101512.25;;;11.05;100.00
14117;BME280;7137;51.436;6.544;2023-02-18T12:53:06;101514.03;;;11.03;100.00
14117;BME280;7137;51.436;6.544;2023-02-18T12:56:43;101505.16;;;10.66;100.00
14117;BME280;7137;51.436;6.544;2023-02-18T13:11:14;101510.47;;;10.62;100.00
14117;BME280;7137;51.436;6.544;2023-02-18T13:14:21;101511.47;;;10.56;100.00
14117;BME280;7137;51.436;6.544;2023-02-18T13:17:24;101514.25;;;10.46;100.00
14117;BME280;7137;51.436;6.544;2023-02-18T13:20:34;101503.44;;;10.65;100.00
14117;BME280;7137;51.436;6.544;2023-02-18T13:23:41;101513.28;;;10.51;100.00
14117;BME280;7137;51.436;6.544;2023-02-18T13:26:48;101506.91;;;10.66;100.00
14117;BME280;7137;51.436;6.544;2023-02-18T13:29:59;101502.31;;;10.79;100.00
14117;BME280;7137;51.436;6.544;2023-02-18T13:33:13;101502.41;;;10.74;100.00
14117;BME280;7137;51.436;6.544;2023-02-18T13:36:30;101501.56;;;11.15;100.00
14117;BME280;7137;51.436;6.544;2023-02-18T13:39:34;101498.00;;;11.19;100.00
14117;BME280;7137;51.436;6.544;2023-02-18T13:42:38;101494.63;;;11.14;100.00
14117;BME280;7137;51.436;6.544;2023-02-18T13:45:39;101493.72;;;11.15;100.00
14117;BME280;7137;51.436;6.544;2023-02-18T13:48:43;101498.25;;;11.07;100.00
14117;BME280;7137;51.436;6.544;2023-02-18T13:51:47;101494.66;;;11.13;100.00
14117;BME280;7137;51.436;6.544;2023-02-18T13:54:50;101498.47;;;10.98;100.00
14117;BME280;7137;51.436;6.544;2023-02-18T13:57:54;101496.25;;;10.77;100.00
14117;BME280;7137;51.436;6.544;2023-02-18T14:01:01;101499.41;;;10.92;100.00
14117;BME280;7137;51.436;6.544;2023-02-18T14:04:31;101494.06;;;11.00;100.00
14117;BME280;7137;51.436;6.544;2023-02-18T14:07:36;101493.69;;;11.17;100.00
14117;BME280;7137;51.436;6.544;2023-02-18T14:10:39;101489.44;;;11.13;100.00
14117;BME280;7137;51.436;6.544;2023-02-18T14:13:43;101498.94;;;11.17;100.00
14117;BME280;7137;51.436;6.544;2023-02-18T14:20:43;101507.56;;;11.20;100.00
14117;BME280;7137;51.436;6.544;2023-02-18T14:23:59;101500.53;;;11.22;100.00
14117;BME280;7137;51.436;6.544;2023-02-18T14:27:07;101494.94;;;10.97;100.00
14117;BME280;7137;51.436;6.544;2023-02-18T14:30:18;101488.38;;;11.20;100.00
14117;BME280;7137;51.436;6.544;2023-02-18T14:33:20;101497.84;;;11.27;100.00
14117;BME280;7137;51.436;6.544;2023-02-18T14:36:28;101491.19;;;11.51;100.00
14117;BME280;7137;51.436;6.544;2023-02-18T14:39:42;101499.50;;;11.31;100.00
14117;BME280;7137;51.436;6.544;2023-02-18T14:42:54;101495.78;;;11.41;100.00
14117;BME280;7137;51.436;6.544;2023-02-18T14:46:17;101496.19;;;11.21;100.00
14117;BME280;7137;51.436;6.544;2023-02-18T14:49:33;101486.47;;;11.28;100.00
14117;BME280;7137;51.436;6.544;2023-02-18T14:52:39;101485.47;;;11.34;100.00
14117;BME280;7137;51.436;6.544;2023-02-18T14:55:44;101491.50;;;11.37;100.00
14117;BME280;7137;51.436;6.544;2023-02-18T14:58:49;101494.38;;;11.26;100.00
14117;BME280;7137;51.436;6.544;2023-02-18T15:01:55;101490.63;;;11.37;100.00
14117;BME280;7137;51.436;6.544;2023-02-18T15:05:11;101483.28;;;11.15;100.00
14117;BME280;7137;51.436;6.544;2023-02-18T15:08:15;101488.69;;;11.06;100.00
14117;BME280;7137;51.436;6.544;2023-02-18T15:11:18;101499.56;;;11.28;100.00
14117;BME280;7137;51.436;6.544;2023-02-18T15:14:22;101495.22;;;11.27;100.00
14117;BME280;7137;51.436;6.544;2023-02-18T15:17:26;101492.63;;;11.25;100.00
14117;BME280;7137;51.436;6.544;2023-02-18T15:20:28;101502.19;;;11.28;100.00
14117;BME280;7137;51.436;6.544;2023-02-18T15:23:35;101499.44;;;11.33;100.00
14117;BME280;7137;51.436;6.544;2023-02-18T15:26:41;101498.13;;;11.12;100.00
14117;BME280;7137;51.436;6.544;2023-02-18T15:29:43;101502.78;;;11.39;100.00
14117;BME280;7137;51.436;6.544;2023-02-18T15:32:52;101516.72;;;11.40;100.00
14117;BME280;7137;51.436;6.544;2023-02-18T15:35:59;101516.41;;;11.53;100.00
14117;BME280;7137;51.436;6.544;2023-02-18T15:39:01;101519.41;;;11.37;100.00
14117;BME280;7137;51.436;6.544;2023-02-18T15:42:08;101504.91;;;11.22;100.00
14117;BME280;7137;51.436;6.544;2023-02-18T15:45:16;101507.00;;;11.46;100.00
14117;BME280;7137;51.436;6.544;2023-02-18T15:48:26;101510.63;;;11.41;100.00
14117;BME280;7137;51.436;6.544;2023-02-18T15:51:30;101503.53;;;11.46;100.00
14117;BME280;7137;51.436;6.544;2023-02-18T15:54:31;101502.50;;;11.51;100.00
14117;BME280;7137;51.436;6.544;2023-02-18T15:57:34;101501.69;;;11.09;100.00
14117;BME280;7137;51.436;6.544;2023-02-18T16:00:40;101513.44;;;11.32;100.00
14117;BME280;7137;51.436;6.544;2023-02-18T16:03:45;101516.22;;;11.22;100.00
14117;BME280;7137;51.436;6.544;2023-02-18T16:06:49;101510.50;;;11.45;100.00
14117;BME280;7137;51.436;6.544;2023-02-18T16:10:06;101518.09;;;11.57;100.00
14117;BME280;7137;51.436;6.544;2023-02-18T16:13:12;101512.69;;;11.64;100.00
14117;BME280;7137;51.436;6.544;2023-02-18T16:16:22;101514.44;;;12.02;100.00
14117;BME280;7137;51.436;6.544;2023-02-18T16:19:26;101523.66;;;11.81;100.00
14117;BME280;7137;51.436;6.544;2023-02-18T16:22:34;101506.47;;;11.69;100.00
14117;BME280;7137;51.436;6.544;2023-02-18T16:25:41;101507.44;;;11.65;100.00
14117;BME280;7137;51.436;6.544;2023-02-18T16:28:44;101507.69;;;11.53;100.00
14117;BME280;7137;51.436;6.544;2023-02-18T16:31:46;101499.50;;;11.68;100.00
14117;BME280;7137;51.436;6.544;2023-02-18T16:34:49;101506.03;;;11.50;100.00
14117;BME280;7137;51.436;6.544;2023-02-18T16:37:51;101508.00;;;11.39;100.00
14117;BME280;7137;51.436;6.544;2023-02-18T16:40:54;101514.13;;;11.38;100.00